createdAt,value
2023-04-11T00:00:12.956Z,1.53
2023-04-11T00:02:39.976Z,1.50
2023-04-11T00:05:08.119Z,1.77
2023-04-11T00:07:35.827Z,1.40
2023-04-11T00:10:03.389Z,1.13
2023-04-11T00:12:30.355Z,1.53
2023-04-11T00:14:57.212Z,1.50
2023-04-11T00:17:24.303Z,1.93
2023-04-11T00:19:53.521Z,2.77
2023-04-11T00:22:20.354Z,2.70
2023-04-11T00:24:47.211Z,2.90
2023-04-11T00:27:13.982Z,2.73
2023-04-11T00:29:40.932Z,2.90
2023-04-11T00:32:08.054Z,2.67
2023-04-11T00:34:35.189Z,3.40
2023-04-11T00:37:02.111Z,3.20
2023-04-11T00:39:31.878Z,3.20
2023-04-11T00:42:08.694Z,2.60
2023-04-11T00:44:36.483Z,2.10
2023-04-11T00:47:06.893Z,2.10
2023-04-11T00:49:34.482Z,2.13
2023-04-11T00:52:01.944Z,1.97
2023-04-11T00:54:30.346Z,2.57
2023-04-11T00:57:04.448Z,2.23
2023-04-11T00:59:32.916Z,2.17
2023-04-11T01:02:01.607Z,2.57
2023-04-11T01:04:31.825Z,2.13
2023-04-11T01:07:04.271Z,2.33
2023-04-11T01:09:34.017Z,3.13
2023-04-11T01:12:02.908Z,2.77
2023-04-11T01:14:30.338Z,2.53
2023-04-11T01:16:57.848Z,3.10
2023-04-11T01:19:26.782Z,3.10
2023-04-11T01:21:56.188Z,2.47
2023-04-11T01:24:23.158Z,2.57
2023-04-11T01:26:50.143Z,3.07
2023-04-11T01:29:17.008Z,3.17
2023-04-11T01:31:44.084Z,3.70
2023-04-11T01:34:14.065Z,3.07
2023-04-11T01:36:42.519Z,2.83
2023-04-11T01:39:09.797Z,3.70
2023-04-11T01:41:37.391Z,4.67
2023-04-11T01:44:05.031Z,3.20
2023-04-11T01:46:32.576Z,3.60
2023-04-11T01:49:01.337Z,3.33
2023-04-11T01:51:28.388Z,3.80
2023-04-11T01:53:55.779Z,4.00
2023-04-11T01:56:22.561Z,3.73
2023-04-11T01:58:49.542Z,4.27
2023-04-11T02:01:20.594Z,4.70
2023-04-11T02:03:47.517Z,4.30
2023-04-11T02:06:16.178Z,3.47
2023-04-11T02:08:43.973Z,5.00
2023-04-11T02:11:10.986Z,4.57
2023-04-11T02:13:38.139Z,4.67
2023-04-11T02:16:07.542Z,3.23
2023-04-11T02:18:34.529Z,3.53
2023-04-11T02:21:01.281Z,3.93
2023-04-11T02:23:28.328Z,4.10
2023-04-11T02:25:55.362Z,3.73
2023-04-11T02:28:22.598Z,3.90
2023-04-11T02:30:50.119Z,3.90
2023-04-11T02:33:17.011Z,3.57
2023-04-11T02:35:43.838Z,3.97
2023-04-11T02:38:10.709Z,4.70
2023-04-11T02:40:37.506Z,5.00
2023-04-11T02:43:04.359Z,4.90
2023-04-11T02:45:31.292Z,5.87
2023-04-11T02:47:58.496Z,5.20
2023-04-11T02:50:28.276Z,4.03
2023-04-11T02:52:55.149Z,5.00
2023-04-11T02:55:23.232Z,3.97
2023-04-11T02:57:50.687Z,4.37
2023-04-11T03:00:20.051Z,5.30
2023-04-11T03:02:46.969Z,5.47
2023-04-11T03:05:15.301Z,6.53
2023-04-11T03:07:42.258Z,5.73
2023-04-11T03:10:09.316Z,5.93
2023-04-11T03:12:37.254Z,5.23
2023-04-11T03:15:04.424Z,6.53
2023-04-11T03:17:31.252Z,8.93
2023-04-11T03:19:58.101Z,6.70
2023-04-11T03:22:25.254Z,5.87
2023-04-11T03:24:52.200Z,5.43
2023-04-11T03:27:18.961Z,5.57
2023-04-11T03:29:45.971Z,4.60
2023-04-11T03:32:12.738Z,5.50
2023-04-11T03:34:39.516Z,6.40
2023-04-11T03:37:06.395Z,5.47
2023-04-11T03:39:33.136Z,5.43
2023-04-11T03:41:59.900Z,5.83
2023-04-11T03:44:26.640Z,7.53
2023-04-11T03:46:53.479Z,6.90
2023-04-11T03:49:20.280Z,7.90
2023-04-11T03:51:47.055Z,7.53
2023-04-11T03:54:14.019Z,7.03
2023-04-11T03:56:40.902Z,5.97
2023-04-11T03:59:07.777Z,6.10
2023-04-11T04:01:38.058Z,5.67
2023-04-11T04:04:05.856Z,6.07
2023-04-11T04:06:32.790Z,5.37
2023-04-11T04:09:02.361Z,5.40
2023-04-11T04:11:29.184Z,5.43
2023-04-11T04:13:56.459Z,5.90
2023-04-11T04:16:23.712Z,5.27
2023-04-11T04:18:50.610Z,5.67
2023-04-11T04:21:18.089Z,6.03
2023-04-11T04:23:47.734Z,7.37
2023-04-11T04:26:16.254Z,6.43
2023-04-11T04:28:46.320Z,5.60
2023-04-11T04:31:15.244Z,6.07
2023-04-11T04:33:46.534Z,5.57
2023-04-11T04:36:13.520Z,5.03
2023-04-11T04:38:42.203Z,5.77
2023-04-11T04:41:15.558Z,5.43
2023-04-11T04:43:44.349Z,4.67
2023-04-11T04:46:11.667Z,5.03
2023-04-11T04:48:38.900Z,4.53
2023-04-11T04:51:06.687Z,4.77
2023-04-11T04:53:35.016Z,5.00
2023-04-11T04:56:02.558Z,5.47
2023-04-11T04:58:29.413Z,9.97
2023-04-11T05:00:59.074Z,10.87
2023-04-11T05:03:26.016Z,10.27
2023-04-11T05:05:53.053Z,12.20
2023-04-11T05:08:22.720Z,16.80
2023-04-11T05:10:49.519Z,13.23
2023-04-11T05:13:16.380Z,11.87
2023-04-11T05:15:48.763Z,10.80
2023-04-11T05:18:15.742Z,11.20
2023-04-11T05:20:42.644Z,12.33
2023-04-11T05:23:09.424Z,10.93
2023-04-11T05:25:36.300Z,7.43
2023-04-11T05:28:03.168Z,7.07
2023-04-11T05:30:29.937Z,6.10
2023-04-11T05:32:56.842Z,6.50
2023-04-11T05:35:23.733Z,6.43
2023-04-11T05:37:50.666Z,7.20
2023-04-11T05:40:17.524Z,7.87
2023-04-11T05:42:45.733Z,8.40
2023-04-11T05:45:12.824Z,6.73
2023-04-11T05:47:44.588Z,8.20
2023-04-11T05:50:12.941Z,7.90
2023-04-11T05:52:40.288Z,6.00
2023-04-11T05:55:07.839Z,5.93
2023-04-11T05:57:36.477Z,5.10
2023-04-11T06:00:12.900Z,5.47
2023-04-11T06:02:42.135Z,4.77
2023-04-11T06:05:15.769Z,4.60
2023-04-11T06:07:42.943Z,4.30
2023-04-11T06:10:10.910Z,5.07
2023-04-11T06:12:37.907Z,4.57
2023-04-11T06:15:05.198Z,4.60
2023-04-11T06:17:32.079Z,5.00
2023-04-11T06:19:58.834Z,4.37
2023-04-11T06:22:25.646Z,3.73
2023-04-11T06:24:52.436Z,5.23
2023-04-11T06:27:19.234Z,4.13
2023-04-11T06:29:45.996Z,3.53
2023-04-11T06:32:12.881Z,4.13
2023-04-11T06:34:39.893Z,3.93
2023-04-11T06:37:07.735Z,3.17
2023-04-11T06:39:35.754Z,3.67
2023-04-11T06:42:03.311Z,3.10
2023-04-11T06:44:31.273Z,3.53
2023-04-11T06:46:59.399Z,4.07
2023-04-11T06:49:28.044Z,3.53
2023-04-11T06:51:55.837Z,2.67
2023-04-11T06:54:23.739Z,2.67
2023-04-11T06:56:53.639Z,2.97
2023-04-11T06:59:20.742Z,4.40
2023-04-11T07:01:48.800Z,2.83
2023-04-11T07:04:16.469Z,4.17
2023-04-11T07:06:43.492Z,2.80
2023-04-11T07:09:10.419Z,4.17
2023-04-11T07:11:38.638Z,3.47
2023-04-11T07:14:05.733Z,3.40
2023-04-11T07:16:33.233Z,3.50
2023-04-11T07:19:00.161Z,4.13
2023-04-11T07:21:32.023Z,3.77
2023-04-11T07:24:00.626Z,4.33
2023-04-11T07:26:32.844Z,4.10
2023-04-11T07:29:00.097Z,3.70
2023-04-11T07:31:27.522Z,4.43
2023-04-11T07:33:54.852Z,3.43
2023-04-11T07:36:21.960Z,4.43
2023-04-11T07:38:48.782Z,3.77
2023-04-11T07:41:16.401Z,3.73
2023-04-11T07:43:43.387Z,4.53
2023-04-11T07:46:12.182Z,3.73
2023-04-11T07:48:39.239Z,3.63
2023-04-11T07:51:06.264Z,22.27
2023-04-11T07:53:33.668Z,4.20
2023-04-11T07:56:01.027Z,3.63
2023-04-11T07:58:28.539Z,3.43
2023-04-11T08:00:55.916Z,3.27
2023-04-11T08:03:23.701Z,3.43
2023-04-11T08:05:52.195Z,3.50
2023-04-11T08:08:19.087Z,2.87
2023-04-11T08:10:45.924Z,2.97
2023-04-11T08:13:12.705Z,3.07
2023-04-11T08:15:39.507Z,3.27
2023-04-11T08:18:06.401Z,3.77
2023-04-11T08:20:33.341Z,4.60
2023-04-11T08:23:00.697Z,3.33
2023-04-11T08:25:27.482Z,2.87
2023-04-11T08:27:54.374Z,3.70
2023-04-11T08:30:22.171Z,3.63
2023-04-11T08:32:49.114Z,3.33
2023-04-11T08:35:15.985Z,2.80
2023-04-11T08:37:44.385Z,3.43
2023-04-11T08:40:11.929Z,3.63
2023-04-11T08:42:38.916Z,3.50
2023-04-11T08:45:08.778Z,3.60
2023-04-11T08:47:36.978Z,3.00
2023-04-11T08:50:05.604Z,2.90
2023-04-11T08:52:33.574Z,2.37
2023-04-11T08:55:01.734Z,2.63
2023-04-11T08:57:32.205Z,2.63
2023-04-11T09:00:02.347Z,2.50
2023-04-11T09:02:29.371Z,2.63
2023-04-11T09:04:57.805Z,2.97
2023-04-11T09:07:24.903Z,3.67
2023-04-11T09:09:51.700Z,2.30
2023-04-11T09:12:29.335Z,2.67
2023-04-11T09:14:56.652Z,2.60
2023-04-11T09:17:23.637Z,2.87
2023-04-11T09:19:50.605Z,3.77
2023-04-11T09:22:17.388Z,3.80
2023-04-11T09:24:44.237Z,3.10
2023-04-11T09:27:16.966Z,2.50
2023-04-11T09:29:45.738Z,2.40
2023-04-11T09:32:30.740Z,2.70
2023-04-11T09:35:11.812Z,2.37
2023-04-11T09:37:58.034Z,2.43
2023-04-11T09:40:32.062Z,3.50
2023-04-11T09:43:03.489Z,2.47
2023-04-11T09:45:38.209Z,2.73
2023-04-11T09:48:08.985Z,2.87
2023-04-11T09:50:38.083Z,2.67
2023-04-11T09:53:06.760Z,3.47
2023-04-11T09:55:33.710Z,3.00
2023-04-11T09:58:00.873Z,3.30
2023-04-11T10:00:32.538Z,3.90
2023-04-11T10:02:59.537Z,3.07
2023-04-11T10:05:28.451Z,2.20
2023-04-11T10:08:22.585Z,3.80
2023-04-11T10:10:50.961Z,4.23
2023-04-11T10:13:42.413Z,2.97
2023-04-11T10:16:17.440Z,3.17
2023-04-11T10:19:04.909Z,3.13
2023-04-11T10:21:34.859Z,3.30
2023-04-11T10:24:14.058Z,2.73
2023-04-11T10:27:05.081Z,3.80
2023-04-11T10:29:40.462Z,2.10
2023-04-11T10:32:13.706Z,2.40
2023-04-11T10:35:00.609Z,2.50
2023-04-11T10:37:30.598Z,2.70
2023-04-11T10:40:12.292Z,2.53
2023-04-11T10:42:40.064Z,2.70
2023-04-11T10:45:18.737Z,2.90
2023-04-11T10:48:13.476Z,2.77
2023-04-11T10:50:44.813Z,2.47
2023-04-11T10:53:36.601Z,2.93
2023-04-11T10:56:03.664Z,2.80
2023-04-11T10:58:40.022Z,2.75
2023-04-11T11:01:26.446Z,3.22
2023-04-11T11:04:00.368Z,2.78
2023-04-11T11:06:29.102Z,2.30
2023-04-11T11:08:56.314Z,2.35
2023-04-11T11:11:23.339Z,3.38
2023-04-11T11:13:57.888Z,2.55
2023-04-11T11:16:26.582Z,3.10
2023-04-11T11:18:57.089Z,3.38
2023-04-11T11:21:28.317Z,3.17
2023-04-11T11:24:03.599Z,3.20
2023-04-11T11:26:40.793Z,2.93
2023-04-11T11:29:09.398Z,2.60
2023-04-11T11:31:45.626Z,3.20
2023-04-11T11:34:23.441Z,2.67
2023-04-11T11:36:51.427Z,2.65
2023-04-11T11:39:20.422Z,3.03
2023-04-11T11:41:51.609Z,1.92
2023-04-11T11:44:29.903Z,2.50
2023-04-11T11:47:09.692Z,2.85
2023-04-11T11:49:56.333Z,2.40
2023-04-11T11:52:44.779Z,1.55
2023-04-11T11:55:22.397Z,2.20
2023-04-11T11:57:55.356Z,1.67
2023-04-11T12:00:26.507Z,2.42
2023-04-11T12:02:54.421Z,1.67
2023-04-11T12:05:24.495Z,1.13
2023-04-11T12:07:54.952Z,1.40
2023-04-11T12:10:23.757Z,2.35
2023-04-11T12:12:54.027Z,1.95
2023-04-11T12:15:24.110Z,1.15
2023-04-11T12:17:52.755Z,1.48
2023-04-11T12:20:26.750Z,1.33
2023-04-11T12:22:56.451Z,1.38
2023-04-11T12:25:25.678Z,1.33
2023-04-11T12:27:52.879Z,1.30
2023-04-11T12:30:20.159Z,1.17
2023-04-11T12:32:50.813Z,1.00
2023-04-11T12:35:18.068Z,1.20
2023-04-11T12:37:46.012Z,1.30
2023-04-11T12:40:13.553Z,2.00
2023-04-11T12:42:55.298Z,1.15
2023-04-11T12:45:24.107Z,1.25
2023-04-11T12:47:51.462Z,1.20
2023-04-11T12:50:19.229Z,1.40
2023-04-11T12:52:48.574Z,1.00
2023-04-11T12:55:16.038Z,1.02
2023-04-11T12:57:43.777Z,1.08
2023-04-11T13:00:12.736Z,1.27
2023-04-11T13:02:44.137Z,1.00
2023-04-11T13:05:14.259Z,1.00
2023-04-11T13:07:42.198Z,1.08
2023-04-11T13:10:11.036Z,1.60
2023-04-11T13:12:43.781Z,1.20
2023-04-11T13:15:15.372Z,1.15
2023-04-11T13:17:42.905Z,1.10
2023-04-11T13:20:11.037Z,0.90
2023-04-11T13:22:39.267Z,1.77
2023-04-11T13:25:07.044Z,1.33
2023-04-11T13:27:34.563Z,1.25
2023-04-11T13:30:01.661Z,0.80
2023-04-11T13:32:28.513Z,1.00
2023-04-11T13:34:55.530Z,1.33
2023-04-11T13:37:22.409Z,1.25
2023-04-11T13:39:49.205Z,1.15
2023-04-11T13:42:15.983Z,1.23
2023-04-11T13:44:42.850Z,1.20
2023-04-11T13:47:09.593Z,1.02
2023-04-11T13:49:36.606Z,0.90
2023-04-11T13:52:03.458Z,1.15
2023-04-11T13:54:30.576Z,1.17
2023-04-11T13:56:59.024Z,1.00
2023-04-11T13:59:27.336Z,1.33
2023-04-11T14:01:54.347Z,0.95
2023-04-11T14:04:21.744Z,1.65
2023-04-11T14:06:48.691Z,1.15
2023-04-11T14:09:16.007Z,1.25
2023-04-11T14:11:42.857Z,1.20
2023-04-11T14:14:09.650Z,1.38
2023-04-11T14:16:36.607Z,1.33
2023-04-11T14:19:03.430Z,1.17
2023-04-11T14:21:30.302Z,1.38
2023-04-11T14:23:57.337Z,1.10
2023-04-11T14:26:24.312Z,1.30
2023-04-11T14:28:51.527Z,1.23
2023-04-11T14:31:18.409Z,1.27
2023-04-11T14:33:45.194Z,1.20
2023-04-11T14:36:11.987Z,1.40
2023-04-11T14:38:39.013Z,1.10
2023-04-11T14:41:06.402Z,1.55
2023-04-11T14:43:33.518Z,1.23
2023-04-11T14:46:00.305Z,1.13
2023-04-11T14:48:27.686Z,1.27
2023-04-11T14:50:57.646Z,1.50
2023-04-11T14:53:24.844Z,1.20
2023-04-11T14:55:51.623Z,1.20
2023-04-11T14:58:18.418Z,1.48
2023-04-11T15:00:45.522Z,1.30
2023-04-11T15:03:12.987Z,1.40
2023-04-11T15:05:40.007Z,1.52
2023-04-11T15:08:06.818Z,1.83
2023-04-11T15:10:33.676Z,1.48
2023-04-11T15:13:00.690Z,1.80
2023-04-11T15:15:27.476Z,1.83
2023-04-11T15:18:23.613Z,6.60
2023-04-11T15:20:50.863Z,1.90
2023-04-11T15:23:19.253Z,2.88
2023-04-11T15:26:04.533Z,1.98
2023-04-11T15:28:33.381Z,1.60
2023-04-11T15:31:00.854Z,1.67
2023-04-11T15:33:28.073Z,1.75
2023-04-11T15:35:55.311Z,1.95
2023-04-11T15:38:22.963Z,2.83
2023-04-11T15:40:54.613Z,1.95
2023-04-11T15:43:22.808Z,1.90
2023-04-11T15:45:50.019Z,1.60
2023-04-11T15:48:17.243Z,2.28
2023-04-11T15:50:45.072Z,1.45
2023-04-11T15:53:11.978Z,1.85
2023-04-11T15:55:42.737Z,2.20
2023-04-11T15:58:10.381Z,1.92
2023-04-11T16:00:38.675Z,1.95
2023-04-11T16:03:12.087Z,1.83
2023-04-11T16:05:43.247Z,1.80
2023-04-11T16:08:10.330Z,1.90
2023-04-11T16:10:39.133Z,2.38
2023-04-11T16:13:05.942Z,2.42
2023-04-11T16:15:32.784Z,3.00
2023-04-11T16:17:59.600Z,4.03
2023-04-11T16:20:26.447Z,2.75
2023-04-11T16:22:53.197Z,1.75
2023-04-11T16:25:21.169Z,1.83
2023-04-11T16:27:48.480Z,2.58
2023-04-11T16:30:15.465Z,2.47
2023-04-11T16:32:42.408Z,1.90
2023-04-11T16:35:10.904Z,2.15
2023-04-11T16:37:37.760Z,1.90
2023-04-11T16:40:09.126Z,1.80
2023-04-11T16:42:36.231Z,7.82
2023-04-11T16:45:03.493Z,1.45
2023-04-11T16:47:31.568Z,1.63
2023-04-11T16:49:59.335Z,1.65
2023-04-11T16:52:26.768Z,3.58
2023-04-11T16:54:54.217Z,2.78
2023-04-11T16:57:21.545Z,2.00
2023-04-11T16:59:48.730Z,1.80
2023-04-11T17:02:16.399Z,2.70
2023-04-11T17:04:44.431Z,1.85
2023-04-11T17:07:11.596Z,1.90
2023-04-11T17:09:39.618Z,2.40
2023-04-11T17:12:07.343Z,2.00
2023-04-11T17:14:36.800Z,2.42
2023-04-11T17:17:04.286Z,1.85
2023-04-11T17:19:31.707Z,1.88
2023-04-11T17:21:58.924Z,1.60
2023-04-11T17:24:27.489Z,2.05
2023-04-11T17:26:55.670Z,1.63
2023-04-11T17:29:23.279Z,2.40
2023-04-11T17:31:50.460Z,3.20
2023-04-11T17:34:17.776Z,2.30
2023-04-11T17:36:45.953Z,1.88
2023-04-11T17:39:17.760Z,2.17
2023-04-11T17:41:46.339Z,2.40
2023-04-11T17:44:13.833Z,2.70
2023-04-11T17:46:41.567Z,2.25
2023-04-11T17:49:09.207Z,2.23
2023-04-11T17:51:42.887Z,2.60
2023-04-11T17:54:13.227Z,2.97
2023-04-11T17:56:40.872Z,3.00
2023-04-11T17:59:09.412Z,3.07
2023-04-11T18:01:36.701Z,2.20
2023-04-11T18:04:07.648Z,2.43
2023-04-11T18:06:35.183Z,2.30
2023-04-11T18:09:02.555Z,3.00
2023-04-11T18:11:30.081Z,2.87
2023-04-11T18:13:57.547Z,2.20
2023-04-11T18:16:24.869Z,2.13
2023-04-11T18:18:52.123Z,2.20
2023-04-11T18:21:21.511Z,2.20
2023-04-11T18:23:48.734Z,2.43
2023-04-11T18:26:15.893Z,1.20
2023-04-11T18:28:43.199Z,2.57
2023-04-11T18:31:11.070Z,1.93
2023-04-11T18:33:42.481Z,2.00
2023-04-11T18:36:10.418Z,2.57
2023-04-11T18:38:39.580Z,1.63
2023-04-11T18:41:07.776Z,2.50
2023-04-11T18:43:35.696Z,3.23
2023-04-11T18:46:02.979Z,1.50
2023-04-11T18:48:31.632Z,1.90
2023-04-11T18:50:59.921Z,1.70
2023-04-11T18:53:30.100Z,1.80
2023-04-11T18:55:57.891Z,4.87
2023-04-11T18:58:26.389Z,2.33
2023-04-11T19:00:54.656Z,2.10
2023-04-11T19:03:23.573Z,2.37
2023-04-11T19:05:51.661Z,2.20
2023-04-11T19:08:19.066Z,2.00
2023-04-11T19:10:46.477Z,2.20
2023-04-11T19:13:13.888Z,2.33
2023-04-11T19:15:42.030Z,2.50
2023-04-11T19:18:10.349Z,2.53
2023-04-11T19:20:39.116Z,2.97
2023-04-11T19:23:06.495Z,2.00
2023-04-11T19:25:34.145Z,1.93
2023-04-11T19:28:01.324Z,2.17
2023-04-11T19:30:28.659Z,1.93
2023-04-11T19:32:57.179Z,4.60
2023-04-11T19:35:25.334Z,3.43
2023-04-11T19:37:52.950Z,2.80
2023-04-11T19:40:23.593Z,2.07
2023-04-11T19:42:51.453Z,2.60
2023-04-11T19:45:18.798Z,1.90
2023-04-11T19:47:46.694Z,2.10
2023-04-11T19:50:14.271Z,2.97
2023-04-11T19:52:42.328Z,2.60
2023-04-11T19:55:10.192Z,2.30
2023-04-11T19:57:39.032Z,1.93
2023-04-11T20:00:14.541Z,2.50
2023-04-11T20:02:46.065Z,2.73
2023-04-11T20:05:18.049Z,2.43
2023-04-11T20:07:46.124Z,2.37
2023-04-11T20:10:13.980Z,2.20
2023-04-11T20:12:41.554Z,2.60
2023-04-11T20:15:12.268Z,2.77
2023-04-11T20:17:42.749Z,2.20
2023-04-11T20:20:12.412Z,2.40
2023-04-11T20:22:40.567Z,1.70
2023-04-11T20:25:11.626Z,2.30
2023-04-11T20:27:43.735Z,2.30
2023-04-11T20:30:12.291Z,2.17
2023-04-11T20:32:42.161Z,1.80
2023-04-11T20:35:12.583Z,2.10
2023-04-11T20:37:40.241Z,2.53
2023-04-11T20:40:10.259Z,2.60
2023-04-11T20:42:42.270Z,2.90
2023-04-11T20:45:11.096Z,2.20
2023-04-11T20:47:41.723Z,1.97
2023-04-11T20:50:10.395Z,1.93
2023-04-11T20:52:38.699Z,2.23
2023-04-11T20:55:06.128Z,2.13
2023-04-11T20:57:36.352Z,2.23
2023-04-11T21:00:14.710Z,3.70
2023-04-11T21:02:44.639Z,2.67
2023-04-11T21:05:12.663Z,2.13
2023-04-11T21:07:41.400Z,2.10
2023-04-11T21:10:08.942Z,2.30
2023-04-11T21:12:36.516Z,1.63
2023-04-11T21:15:04.148Z,2.83
2023-04-11T21:17:35.247Z,2.23
2023-04-11T21:20:10.099Z,2.37
2023-04-11T21:22:38.426Z,1.90
2023-04-11T21:25:05.847Z,2.00
2023-04-11T21:27:33.366Z,2.10
2023-04-11T21:30:00.683Z,2.13
2023-04-11T21:32:28.166Z,1.93
2023-04-11T21:34:55.375Z,2.00
2023-04-11T21:37:22.621Z,2.50
2023-04-11T21:39:49.833Z,2.10
2023-04-11T21:42:17.039Z,3.10
2023-04-11T21:44:44.234Z,2.70
2023-04-11T21:47:11.470Z,2.37
2023-04-11T21:49:38.763Z,2.23
2023-04-11T21:52:06.132Z,1.90
2023-04-11T21:54:34.493Z,1.97
2023-04-11T21:57:02.119Z,2.60
2023-04-11T21:59:29.346Z,2.70
2023-04-11T22:01:56.702Z,2.20
2023-04-11T22:04:24.116Z,2.03
2023-04-11T22:06:51.422Z,2.47
2023-04-11T22:09:19.075Z,2.90
2023-04-11T22:11:46.646Z,2.27
2023-04-11T22:14:16.402Z,2.27
2023-04-11T22:16:49.216Z,2.80
2023-04-11T22:19:18.033Z,3.13
2023-04-11T22:21:55.750Z,2.20
2023-04-11T22:24:30.438Z,2.70
2023-04-11T22:27:04.453Z,2.33
2023-04-11T22:29:34.266Z,2.57
2023-04-11T22:32:03.914Z,1.90
2023-04-11T22:34:31.498Z,2.47
2023-04-11T22:36:59.101Z,2.63
2023-04-11T22:39:26.283Z,2.17
2023-04-11T22:41:54.505Z,2.20
2023-04-11T22:44:21.999Z,2.60
2023-04-11T22:47:00.312Z,2.07
2023-04-11T22:49:28.007Z,1.90
2023-04-11T22:51:59.277Z,2.23
2023-04-11T22:54:27.421Z,2.13
2023-04-11T22:56:56.753Z,2.53
2023-04-11T22:59:24.560Z,6.23
2023-04-11T23:01:51.740Z,3.07
2023-04-11T23:04:19.841Z,2.33
2023-04-11T23:06:53.868Z,1.77
2023-04-11T23:09:21.778Z,2.30
2023-04-11T23:11:49.118Z,2.03
2023-04-11T23:14:18.293Z,4.47
2023-04-11T23:16:45.876Z,3.27
2023-04-11T23:19:13.490Z,1.73
2023-04-11T23:21:41.116Z,2.30
2023-04-11T23:24:09.049Z,2.00
2023-04-11T23:26:37.570Z,2.13
2023-04-11T23:29:04.861Z,2.37
2023-04-11T23:31:32.677Z,3.80
2023-04-11T23:34:00.631Z,2.23
2023-04-11T23:36:28.174Z,2.00
2023-04-11T23:38:55.424Z,2.47
2023-04-11T23:41:22.644Z,2.67
2023-04-11T23:43:49.899Z,2.47
2023-04-11T23:46:18.332Z,2.00
2023-04-11T23:48:47.099Z,1.80
2023-04-11T23:51:14.439Z,2.13
2023-04-11T23:53:42.908Z,2.00
2023-04-11T23:56:10.360Z,1.93
2023-04-11T23:58:39.966Z,1.80
